sensor_id;sensor_type;location;lat;lon;timestamp;temperature;humidity
14924;DHT22;7554;43.600;1.480;2024-02-16T00:02:06;13.00;1.00
14924;DHT22;7554;43.600;1.480;2024-02-16T00:04:34;13.00;1.00
14924;DHT22;7554;43.600;1.480;2024-02-16T00:07:01;13.00;1.00
14924;DHT22;7554;43.600;1.480;2024-02-16T00:09:30;13.00;1.00
14924;DHT22;7554;43.600;1.480;2024-02-16T00:11:59;13.10;1.00
14924;DHT22;7554;43.600;1.480;2024-02-16T00:14:27;13.10;1.00
14924;DHT22;7554;43.600;1.480;2024-02-16T00:16:55;13.10;1.00
14924;DHT22;7554;43.600;1.480;2024-02-16T00:19:22;13.10;1.00
14924;DHT22;7554;43.600;1.480;2024-02-16T00:21:51;13.00;1.00
14924;DHT22;7554;43.600;1.480;2024-02-16T00:24:18;13.00;1.00
14924;DHT22;7554;43.600;1.480;2024-02-16T00:26:47;13.00;1.00
14924;DHT22;7554;43.600;1.480;2024-02-16T00:29:15;12.90;1.00
14924;DHT22;7554;43.600;1.480;2024-02-16T00:31:42;12.90;1.00
14924;DHT22;7554;43.600;1.480;2024-02-16T00:34:10;12.90;1.00
14924;DHT22;7554;43.600;1.480;2024-02-16T00:36:37;12.90;1.00
14924;DHT22;7554;43.600;1.480;2024-02-16T00:39:04;12.90;1.00
14924;DHT22;7554;43.600;1.480;2024-02-16T00:41:32;12.90;1.00
14924;DHT22;7554;43.600;1.480;2024-02-16T00:44:01;12.90;1.00
14924;DHT22;7554;43.600;1.480;2024-02-16T00:46:28;12.90;1.00
14924;DHT22;7554;43.600;1.480;2024-02-16T00:48:55;12.90;1.00
14924;DHT22;7554;43.600;1.480;2024-02-16T00:51:23;12.80;1.00
14924;DHT22;7554;43.600;1.480;2024-02-16T00:53:52;13.70;1.00
14924;DHT22;7554;43.600;1.480;2024-02-16T00:56:19;12.60;21.00
14924;DHT22;7554;43.600;1.480;2024-02-16T00:58:47;12.40;1.00
14924;DHT22;7554;43.600;1.480;2024-02-16T01:01:16;12.30;1.00
14924;DHT22;7554;43.600;1.480;2024-02-16T01:03:43;12.30;1.00
14924;DHT22;7554;43.600;1.480;2024-02-16T01:06:10;12.30;24.00
14924;DHT22;7554;43.600;1.480;2024-02-16T01:08:38;12.30;50.20
14924;DHT22;7554;43.600;1.480;2024-02-16T01:11:05;12.30;68.70
14924;DHT22;7554;43.600;1.480;2024-02-16T01:13:33;12.30;13.00
14924;DHT22;7554;43.600;1.480;2024-02-16T01:16:00;12.40;1.00
14924;DHT22;7554;43.600;1.480;2024-02-16T01:18:29;12.40;1.00
14924;DHT22;7554;43.600;1.480;2024-02-16T01:20:58;12.40;1.00
14924;DHT22;7554;43.600;1.480;2024-02-16T01:23:26;12.40;1.00
14924;DHT22;7554;43.600;1.480;2024-02-16T01:25:53;12.40;1.00
14924;DHT22;7554;43.600;1.480;2024-02-16T01:28:20;12.50;1.00
14924;DHT22;7554;43.600;1.480;2024-02-16T01:30:51;12.40;1.00
14924;DHT22;7554;43.600;1.480;2024-02-16T01:33:19;12.40;1.00
14924;DHT22;7554;43.600;1.480;2024-02-16T01:35:48;12.40;1.00
14924;DHT22;7554;43.600;1.480;2024-02-16T01:38:15;12.50;1.00
14924;DHT22;7554;43.600;1.480;2024-02-16T01:40:43;12.50;1.00
14924;DHT22;7554;43.600;1.480;2024-02-16T01:43:10;12.50;1.00
14924;DHT22;7554;43.600;1.480;2024-02-16T01:45:38;12.50;1.00
14924;DHT22;7554;43.600;1.480;2024-02-16T01:48:06;12.50;1.00
14924;DHT22;7554;43.600;1.480;2024-02-16T01:50:33;12.50;1.00
14924;DHT22;7554;43.600;1.480;2024-02-16T01:53:02;12.40;1.00
14924;DHT22;7554;43.600;1.480;2024-02-16T01:55:29;12.40;1.00
14924;DHT22;7554;43.600;1.480;2024-02-16T01:57:58;12.50;1.00
14924;DHT22;7554;43.600;1.480;2024-02-16T02:00:26;12.50;1.00
14924;DHT22;7554;43.600;1.480;2024-02-16T02:02:54;12.50;99.90
14924;DHT22;7554;43.600;1.480;2024-02-16T02:05:23;12.50;99.90
14924;DHT22;7554;43.600;1.480;2024-02-16T02:07:50;12.50;99.90
14924;DHT22;7554;43.600;1.480;2024-02-16T02:10:19;12.60;99.90
14924;DHT22;7554;43.600;1.480;2024-02-16T02:12:46;12.60;99.90
14924;DHT22;7554;43.600;1.480;2024-02-16T02:15:13;12.60;99.90
14924;DHT22;7554;43.600;1.480;2024-02-16T02:17:41;12.60;98.60
14924;DHT22;7554;43.600;1.480;2024-02-16T02:20:09;12.60;19.20
14924;DHT22;7554;43.600;1.480;2024-02-16T02:22:38;12.60;39.30
14924;DHT22;7554;43.600;1.480;2024-02-16T02:25:05;12.60;1.00
14924;DHT22;7554;43.600;1.480;2024-02-16T02:27:36;12.60;1.00
14924;DHT22;7554;43.600;1.480;2024-02-16T02:30:04;12.60;1.00
14924;DHT22;7554;43.600;1.480;2024-02-16T02:32:32;12.60;1.00
14924;DHT22;7554;43.600;1.480;2024-02-16T02:34:59;12.60;1.00
14924;DHT22;7554;43.600;1.480;2024-02-16T02:37:27;12.70;1.00
14924;DHT22;7554;43.600;1.480;2024-02-16T02:39:55;12.70;1.00
14924;DHT22;7554;43.600;1.480;2024-02-16T02:42:23;12.70;1.00
14924;DHT22;7554;43.600;1.480;2024-02-16T02:44:51;12.70;1.00
14924;DHT22;7554;43.600;1.480;2024-02-16T02:47:18;12.70;1.00
14924;DHT22;7554;43.600;1.480;2024-02-16T02:49:45;12.70;1.00
14924;DHT22;7554;43.600;1.480;2024-02-16T02:52:13;12.70;1.00
14924;DHT22;7554;43.600;1.480;2024-02-16T02:54:40;12.70;1.00
14924;DHT22;7554;43.600;1.480;2024-02-16T02:57:09;12.70;1.00
14924;DHT22;7554;43.600;1.480;2024-02-16T02:59:36;12.70;1.00
14924;DHT22;7554;43.600;1.480;2024-02-16T03:02:03;12.70;1.00
14924;DHT22;7554;43.600;1.480;2024-02-16T03:04:31;12.60;1.00
14924;DHT22;7554;43.600;1.480;2024-02-16T03:06:59;12.70;1.00
14924;DHT22;7554;43.600;1.480;2024-02-16T03:09:26;12.70;1.00
14924;DHT22;7554;43.600;1.480;2024-02-16T03:11:54;12.70;1.00
14924;DHT22;7554;43.600;1.480;2024-02-16T03:14:23;12.70;1.00
14924;DHT22;7554;43.600;1.480;2024-02-16T03:16:50;12.70;1.00
14924;DHT22;7554;43.600;1.480;2024-02-16T03:19:17;12.70;1.00
14924;DHT22;7554;43.600;1.480;2024-02-16T03:21:47;12.70;1.00
14924;DHT22;7554;43.600;1.480;2024-02-16T03:24:14;12.60;1.00
14924;DHT22;7554;43.600;1.480;2024-02-16T03:26:41;12.60;1.00
14924;DHT22;7554;43.600;1.480;2024-02-16T03:29:09;12.60;1.00
14924;DHT22;7554;43.600;1.480;2024-02-16T03:31:37;12.60;1.00
14924;DHT22;7554;43.600;1.480;2024-02-16T03:34:05;12.60;99.90
14924;DHT22;7554;43.600;1.480;2024-02-16T03:36:33;12.60;99.90
14924;DHT22;7554;43.600;1.480;2024-02-16T03:39:00;12.50;1.00
14924;DHT22;7554;43.600;1.480;2024-02-16T03:41:28;12.50;42.20
14924;DHT22;7554;43.600;1.480;2024-02-16T03:43:55;12.50;1.00
14924;DHT22;7554;43.600;1.480;2024-02-16T03:46:24;12.50;99.90
14924;DHT22;7554;43.600;1.480;2024-02-16T03:48:53;12.40;99.90
14924;DHT22;7554;43.600;1.480;2024-02-16T03:51:20;12.30;99.90
14924;DHT22;7554;43.600;1.480;2024-02-16T03:53:48;12.30;99.90
14924;DHT22;7554;43.600;1.480;2024-02-16T03:56:19;12.30;99.90
14924;DHT22;7554;43.600;1.480;2024-02-16T03:58:46;12.30;99.90
14924;DHT22;7554;43.600;1.480;2024-02-16T04:01:14;12.30;99.90
14924;DHT22;7554;43.600;1.480;2024-02-16T04:03:41;12.20;99.90
14924;DHT22;7554;43.600;1.480;2024-02-16T04:06:10;12.20;99.90
14924;DHT22;7554;43.600;1.480;2024-02-16T04:08:37;12.20;99.90
14924;DHT22;7554;43.600;1.480;2024-02-16T04:11:05;12.20;99.90
14924;DHT22;7554;43.600;1.480;2024-02-16T04:13:32;12.20;99.90
14924;DHT22;7554;43.600;1.480;2024-02-16T04:15:59;12.20;99.90
14924;DHT22;7554;43.600;1.480;2024-02-16T04:18:27;12.20;99.90
14924;DHT22;7554;43.600;1.480;2024-02-16T04:20:54;12.30;99.90
14924;DHT22;7554;43.600;1.480;2024-02-16T04:23:23;12.40;99.90
14924;DHT22;7554;43.600;1.480;2024-02-16T04:25:50;12.40;99.90
14924;DHT22;7554;43.600;1.480;2024-02-16T04:28:18;12.40;99.90
14924;DHT22;7554;43.600;1.480;2024-02-16T04:30:45;12.50;99.90
14924;DHT22;7554;43.600;1.480;2024-02-16T04:33:12;12.50;99.90
14924;DHT22;7554;43.600;1.480;2024-02-16T04:35:39;12.50;99.90
14924;DHT22;7554;43.600;1.480;2024-02-16T04:38:07;12.50;99.90
14924;DHT22;7554;43.600;1.480;2024-02-16T04:40:37;12.60;99.90
14924;DHT22;7554;43.600;1.480;2024-02-16T04:43:04;12.60;99.90
14924;DHT22;7554;43.600;1.480;2024-02-16T04:45:32;12.60;99.90
14924;DHT22;7554;43.600;1.480;2024-02-16T04:48:03;12.60;99.90
14924;DHT22;7554;43.600;1.480;2024-02-16T04:50:31;12.60;99.90
14924;DHT22;7554;43.600;1.480;2024-02-16T04:52:59;12.60;99.90
14924;DHT22;7554;43.600;1.480;2024-02-16T04:55:27;12.60;99.90
14924;DHT22;7554;43.600;1.480;2024-02-16T04:57:57;12.70;99.90
14924;DHT22;7554;43.600;1.480;2024-02-16T05:00:24;12.70;99.90
14924;DHT22;7554;43.600;1.480;2024-02-16T05:02:53;12.70;99.90
14924;DHT22;7554;43.600;1.480;2024-02-16T05:05:21;12.70;99.90
14924;DHT22;7554;43.600;1.480;2024-02-16T05:07:49;12.80;99.90
14924;DHT22;7554;43.600;1.480;2024-02-16T05:10:17;12.80;99.90
14924;DHT22;7554;43.600;1.480;2024-02-16T05:12:45;12.70;99.90
14924;DHT22;7554;43.600;1.480;2024-02-16T05:15:14;12.70;99.90
14924;DHT22;7554;43.600;1.480;2024-02-16T05:17:46;12.70;99.90
14924;DHT22;7554;43.600;1.480;2024-02-16T05:20:14;12.70;99.90
14924;DHT22;7554;43.600;1.480;2024-02-16T05:22:42;12.80;99.90
14924;DHT22;7554;43.600;1.480;2024-02-16T05:25:11;12.70;99.90
14924;DHT22;7554;43.600;1.480;2024-02-16T05:27:39;12.70;99.90
14924;DHT22;7554;43.600;1.480;2024-02-16T05:30:08;12.80;99.90
14924;DHT22;7554;43.600;1.480;2024-02-16T05:32:38;12.80;99.90
14924;DHT22;7554;43.600;1.480;2024-02-16T05:35:06;12.90;99.90
14924;DHT22;7554;43.600;1.480;2024-02-16T05:37:37;13.00;99.90
14924;DHT22;7554;43.600;1.480;2024-02-16T05:40:08;13.00;99.90
14924;DHT22;7554;43.600;1.480;2024-02-16T05:42:46;13.00;99.90
14924;DHT22;7554;43.600;1.480;2024-02-16T05:45:14;13.20;99.90
14924;DHT22;7554;43.600;1.480;2024-02-16T05:47:44;13.20;99.90
14924;DHT22;7554;43.600;1.480;2024-02-16T05:50:12;13.30;99.90
14924;DHT22;7554;43.600;1.480;2024-02-16T05:52:39;13.40;99.90
14924;DHT22;7554;43.600;1.480;2024-02-16T05:55:08;13.40;99.90
14924;DHT22;7554;43.600;1.480;2024-02-16T05:57:35;13.30;99.90
14924;DHT22;7554;43.600;1.480;2024-02-16T06:00:03;13.40;99.90
14924;DHT22;7554;43.600;1.480;2024-02-16T06:02:31;13.40;99.90
14924;DHT22;7554;43.600;1.480;2024-02-16T06:05:00;13.50;99.90
14924;DHT22;7554;43.600;1.480;2024-02-16T06:07:28;13.50;99.90
14924;DHT22;7554;43.600;1.480;2024-02-16T06:09:55;13.60;99.90
14924;DHT22;7554;43.600;1.480;2024-02-16T06:12:23;13.70;99.90
14924;DHT22;7554;43.600;1.480;2024-02-16T06:14:50;14.00;99.90
14924;DHT22;7554;43.600;1.480;2024-02-16T06:17:19;14.00;99.90
14924;DHT22;7554;43.600;1.480;2024-02-16T06:19:46;14.30;99.90
14924;DHT22;7554;43.600;1.480;2024-02-16T06:22:15;14.40;99.90
14924;DHT22;7554;43.600;1.480;2024-02-16T06:24:43;14.40;99.90
14924;DHT22;7554;43.600;1.480;2024-02-16T06:27:10;14.60;99.90
14924;DHT22;7554;43.600;1.480;2024-02-16T06:29:37;14.40;99.90
14924;DHT22;7554;43.600;1.480;2024-02-16T06:32:05;14.70;99.90
14924;DHT22;7554;43.600;1.480;2024-02-16T06:34:33;14.70;99.90
14924;DHT22;7554;43.600;1.480;2024-02-16T06:37:00;14.40;99.90
14924;DHT22;7554;43.600;1.480;2024-02-16T06:39:29;14.50;99.90
14924;DHT22;7554;43.600;1.480;2024-02-16T06:41:56;14.30;99.90
14924;DHT22;7554;43.600;1.480;2024-02-16T06:44:24;14.40;99.90
14924;DHT22;7554;43.600;1.480;2024-02-16T06:46:51;14.40;99.90
14924;DHT22;7554;43.600;1.480;2024-02-16T06:49:18;14.60;99.90
14924;DHT22;7554;43.600;1.480;2024-02-16T06:51:46;14.70;99.90
14924;DHT22;7554;43.600;1.480;2024-02-16T06:54:13;15.00;99.90
14924;DHT22;7554;43.600;1.480;2024-02-16T06:56:42;15.00;99.90
14924;DHT22;7554;43.600;1.480;2024-02-16T06:59:09;15.10;99.90
14924;DHT22;7554;43.600;1.480;2024-02-16T07:01:37;15.40;99.90
14924;DHT22;7554;43.600;1.480;2024-02-16T07:04:04;15.40;99.90
14924;DHT22;7554;43.600;1.480;2024-02-16T07:06:31;15.60;99.90
14924;DHT22;7554;43.600;1.480;2024-02-16T07:08:59;15.80;99.90
14924;DHT22;7554;43.600;1.480;2024-02-16T07:11:29;16.00;99.90
14924;DHT22;7554;43.600;1.480;2024-02-16T07:14:13;16.10;99.90
14924;DHT22;7554;43.600;1.480;2024-02-16T07:16:40;16.20;99.90
14924;DHT22;7554;43.600;1.480;2024-02-16T07:19:07;16.40;99.90
14924;DHT22;7554;43.600;1.480;2024-02-16T07:21:35;16.40;99.90
14924;DHT22;7554;43.600;1.480;2024-02-16T07:24:02;16.60;99.90
14924;DHT22;7554;43.600;1.480;2024-02-16T07:26:29;16.70;99.90
14924;DHT22;7554;43.600;1.480;2024-02-16T07:28:57;16.70;99.90
14924;DHT22;7554;43.600;1.480;2024-02-16T07:31:30;17.00;99.90
14924;DHT22;7554;43.600;1.480;2024-02-16T07:33:57;17.00;99.90
14924;DHT22;7554;43.600;1.480;2024-02-16T07:36:24;17.10;99.90
14924;DHT22;7554;43.600;1.480;2024-02-16T07:38:52;17.10;99.90
14924;DHT22;7554;43.600;1.480;2024-02-16T07:41:19;17.10;99.90
14924;DHT22;7554;43.600;1.480;2024-02-16T07:43:46;17.40;99.90
14924;DHT22;7554;43.600;1.480;2024-02-16T07:46:14;17.40;99.90
14924;DHT22;7554;43.600;1.480;2024-02-16T07:48:42;17.60;99.90
14924;DHT22;7554;43.600;1.480;2024-02-16T07:51:10;17.60;99.90
14924;DHT22;7554;43.600;1.480;2024-02-16T07:53:37;17.80;99.90
14924;DHT22;7554;43.600;1.480;2024-02-16T07:56:07;17.90;99.90
14924;DHT22;7554;43.600;1.480;2024-02-16T07:58:35;17.90;99.90
14924;DHT22;7554;43.600;1.480;2024-02-16T08:01:04;17.90;99.90
14924;DHT22;7554;43.600;1.480;2024-02-16T08:03:31;18.00;99.90
14924;DHT22;7554;43.600;1.480;2024-02-16T08:06:01;17.90;99.90
14924;DHT22;7554;43.600;1.480;2024-02-16T08:08:28;18.00;99.90
14924;DHT22;7554;43.600;1.480;2024-02-16T08:10:55;18.00;99.90
14924;DHT22;7554;43.600;1.480;2024-02-16T08:13:23;18.00;99.90
14924;DHT22;7554;43.600;1.480;2024-02-16T08:15:50;17.80;99.90
14924;DHT22;7554;43.600;1.480;2024-02-16T08:18:18;17.80;99.90
14924;DHT22;7554;43.600;1.480;2024-02-16T08:20:45;17.80;99.90
14924;DHT22;7554;43.600;1.480;2024-02-16T08:23:14;17.60;99.90
14924;DHT22;7554;43.600;1.480;2024-02-16T08:25:41;17.70;99.90
14924;DHT22;7554;43.600;1.480;2024-02-16T08:28:09;17.60;99.90
14924;DHT22;7554;43.600;1.480;2024-02-16T08:30:36;17.60;99.90
14924;DHT22;7554;43.600;1.480;2024-02-16T08:33:07;17.60;99.90
14924;DHT22;7554;43.600;1.480;2024-02-16T08:35:35;17.60;99.90
14924;DHT22;7554;43.600;1.480;2024-02-16T08:38:03;17.60;99.90
14924;DHT22;7554;43.600;1.480;2024-02-16T08:40:32;17.30;99.90
14924;DHT22;7554;43.600;1.480;2024-02-16T08:43:00;17.40;99.90
14924;DHT22;7554;43.600;1.480;2024-02-16T08:45:28;17.40;99.90
14924;DHT22;7554;43.600;1.480;2024-02-16T08:47:56;17.50;99.90
14924;DHT22;7554;43.600;1.480;2024-02-16T08:50:24;17.40;99.90
14924;DHT22;7554;43.600;1.480;2024-02-16T08:52:52;17.30;99.90
14924;DHT22;7554;43.600;1.480;2024-02-16T08:55:20;17.50;99.90
14924;DHT22;7554;43.600;1.480;2024-02-16T08:57:49;17.50;99.90
14924;DHT22;7554;43.600;1.480;2024-02-16T09:00:17;17.50;99.90
14924;DHT22;7554;43.600;1.480;2024-02-16T09:02:44;17.50;99.90
14924;DHT22;7554;43.600;1.480;2024-02-16T09:05:12;17.40;99.90
14924;DHT22;7554;43.600;1.480;2024-02-16T09:07:40;17.60;99.90
14924;DHT22;7554;43.600;1.480;2024-02-16T09:10:08;17.60;99.90
14924;DHT22;7554;43.600;1.480;2024-02-16T09:12:35;17.60;99.90
14924;DHT22;7554;43.600;1.480;2024-02-16T09:15:05;17.80;99.90
14924;DHT22;7554;43.600;1.480;2024-02-16T09:17:32;17.70;99.90
14924;DHT22;7554;43.600;1.480;2024-02-16T09:20:00;17.80;99.90
14924;DHT22;7554;43.600;1.480;2024-02-16T09:22:30;17.80;99.90
14924;DHT22;7554;43.600;1.480;2024-02-16T09:24:57;17.70;99.90
14924;DHT22;7554;43.600;1.480;2024-02-16T09:27:25;17.80;99.90
14924;DHT22;7554;43.600;1.480;2024-02-16T09:29:53;18.00;99.90
14924;DHT22;7554;43.600;1.480;2024-02-16T09:32:22;18.00;99.90
14924;DHT22;7554;43.600;1.480;2024-02-16T09:34:49;17.90;99.90
14924;DHT22;7554;43.600;1.480;2024-02-16T09:37:17;18.00;99.90
14924;DHT22;7554;43.600;1.480;2024-02-16T09:39:45;18.20;99.90
14924;DHT22;7554;43.600;1.480;2024-02-16T09:42:12;18.00;99.90
14924;DHT22;7554;43.600;1.480;2024-02-16T09:44:44;18.10;99.90
14924;DHT22;7554;43.600;1.480;2024-02-16T09:47:14;18.10;99.90
14924;DHT22;7554;43.600;1.480;2024-02-16T09:49:47;18.10;99.90
14924;DHT22;7554;43.600;1.480;2024-02-16T09:52:15;18.20;99.90
14924;DHT22;7554;43.600;1.480;2024-02-16T09:54:42;18.40;99.90
14924;DHT22;7554;43.600;1.480;2024-02-16T09:57:09;18.30;99.90
14924;DHT22;7554;43.600;1.480;2024-02-16T09:59:37;18.50;99.90
14924;DHT22;7554;43.600;1.480;2024-02-16T10:02:04;18.60;99.90
14924;DHT22;7554;43.600;1.480;2024-02-16T10:04:33;18.60;99.90
14924;DHT22;7554;43.600;1.480;2024-02-16T10:07:02;18.60;99.90
14924;DHT22;7554;43.600;1.480;2024-02-16T10:09:30;19.00;99.90
14924;DHT22;7554;43.600;1.480;2024-02-16T10:11:58;18.80;99.90
14924;DHT22;7554;43.600;1.480;2024-02-16T10:14:26;18.70;99.90
14924;DHT22;7554;43.600;1.480;2024-02-16T10:17:00;18.60;99.90
14924;DHT22;7554;43.600;1.480;2024-02-16T10:19:29;18.70;99.90
14924;DHT22;7554;43.600;1.480;2024-02-16T10:22:08;18.70;99.90
14924;DHT22;7554;43.600;1.480;2024-02-16T10:24:35;18.80;99.90
14924;DHT22;7554;43.600;1.480;2024-02-16T10:27:04;18.50;99.90
14924;DHT22;7554;43.600;1.480;2024-02-16T10:29:32;18.60;99.90
14924;DHT22;7554;43.600;1.480;2024-02-16T10:32:01;18.40;99.90
14924;DHT22;7554;43.600;1.480;2024-02-16T10:34:29;18.80;99.90
14924;DHT22;7554;43.600;1.480;2024-02-16T10:36:59;18.50;99.90
14924;DHT22;7554;43.600;1.480;2024-02-16T10:39:28;18.70;99.90
14924;DHT22;7554;43.600;1.480;2024-02-16T10:41:57;18.70;99.90
14924;DHT22;7554;43.600;1.480;2024-02-16T10:44:28;18.50;99.90
14924;DHT22;7554;43.600;1.480;2024-02-16T10:46:55;18.50;99.90
14924;DHT22;7554;43.600;1.480;2024-02-16T10:49:24;18.30;99.90
14924;DHT22;7554;43.600;1.480;2024-02-16T10:51:53;18.40;99.90
14924;DHT22;7554;43.600;1.480;2024-02-16T10:54:26;18.20;99.90
14924;DHT22;7554;43.600;1.480;2024-02-16T10:56:55;18.00;99.90
14924;DHT22;7554;43.600;1.480;2024-02-16T10:59:23;18.50;99.90
14924;DHT22;7554;43.600;1.480;2024-02-16T11:02:00;18.60;99.90
14924;DHT22;7554;43.600;1.480;2024-02-16T11:04:36;18.50;99.90
14924;DHT22;7554;43.600;1.480;2024-02-16T11:07:11;18.30;99.90
14924;DHT22;7554;43.600;1.480;2024-02-16T11:09:39;18.10;99.90
14924;DHT22;7554;43.600;1.480;2024-02-16T11:12:08;18.50;99.90
14924;DHT22;7554;43.600;1.480;2024-02-16T11:14:40;18.40;99.90
14924;DHT22;7554;43.600;1.480;2024-02-16T11:17:09;18.20;99.90
14924;DHT22;7554;43.600;1.480;2024-02-16T11:19:36;18.20;99.90
14924;DHT22;7554;43.600;1.480;2024-02-16T11:22:05;18.10;99.90
14924;DHT22;7554;43.600;1.480;2024-02-16T11:24:35;18.30;99.90
14924;DHT22;7554;43.600;1.480;2024-02-16T11:27:03;18.60;99.90
14924;DHT22;7554;43.600;1.480;2024-02-16T11:29:34;18.20;99.90
14924;DHT22;7554;43.600;1.480;2024-02-16T11:32:05;18.30;99.90
14924;DHT22;7554;43.600;1.480;2024-02-16T11:34:33;18.20;99.90
14924;DHT22;7554;43.600;1.480;2024-02-16T11:37:04;18.40;99.90
14924;DHT22;7554;43.600;1.480;2024-02-16T11:39:32;19.20;99.90
14924;DHT22;7554;43.600;1.480;2024-02-16T11:42:02;18.50;99.90
14924;DHT22;7554;43.600;1.480;2024-02-16T11:44:30;18.40;99.90
14924;DHT22;7554;43.600;1.480;2024-02-16T11:46:59;18.70;99.90
14924;DHT22;7554;43.600;1.480;2024-02-16T11:49:27;18.70;99.90
14924;DHT22;7554;43.600;1.480;2024-02-16T11:51:55;18.60;99.90
14924;DHT22;7554;43.600;1.480;2024-02-16T11:54:23;19.00;99.90
14924;DHT22;7554;43.600;1.480;2024-02-16T11:56:51;19.00;99.90
14924;DHT22;7554;43.600;1.480;2024-02-16T11:59:19;19.30;99.90
14924;DHT22;7554;43.600;1.480;2024-02-16T12:01:51;19.10;99.90
14924;DHT22;7554;43.600;1.480;2024-02-16T12:04:24;19.40;99.90
14924;DHT22;7554;43.600;1.480;2024-02-16T12:06:53;19.50;99.90
14924;DHT22;7554;43.600;1.480;2024-02-16T12:09:22;19.50;99.90
14924;DHT22;7554;43.600;1.480;2024-02-16T12:11:50;19.20;99.90
14924;DHT22;7554;43.600;1.480;2024-02-16T12:14:21;18.90;99.90
14924;DHT22;7554;43.600;1.480;2024-02-16T12:16:49;19.10;99.90
14924;DHT22;7554;43.600;1.480;2024-02-16T12:19:18;19.40;99.90
14924;DHT22;7554;43.600;1.480;2024-02-16T12:21:50;19.60;99.90
14924;DHT22;7554;43.600;1.480;2024-02-16T12:24:18;19.80;99.90
14924;DHT22;7554;43.600;1.480;2024-02-16T12:26:46;19.80;99.90
14924;DHT22;7554;43.600;1.480;2024-02-16T12:29:13;19.60;99.90
14924;DHT22;7554;43.600;1.480;2024-02-16T12:31:43;19.20;99.90
14924;DHT22;7554;43.600;1.480;2024-02-16T12:34:11;19.40;99.90
14924;DHT22;7554;43.600;1.480;2024-02-16T12:36:40;19.60;99.90
14924;DHT22;7554;43.600;1.480;2024-02-16T12:39:09;19.70;99.90
14924;DHT22;7554;43.600;1.480;2024-02-16T12:41:40;19.50;99.90
14924;DHT22;7554;43.600;1.480;2024-02-16T12:44:08;19.40;99.90
14924;DHT22;7554;43.600;1.480;2024-02-16T12:46:36;19.40;99.90
14924;DHT22;7554;43.600;1.480;2024-02-16T12:49:04;19.30;99.90
14924;DHT22;7554;43.600;1.480;2024-02-16T12:51:35;19.60;99.90
14924;DHT22;7554;43.600;1.480;2024-02-16T12:54:02;19.80;99.90
14924;DHT22;7554;43.600;1.480;2024-02-16T12:56:32;19.60;99.90
14924;DHT22;7554;43.600;1.480;2024-02-16T12:58:59;19.30;99.90
14924;DHT22;7554;43.600;1.480;2024-02-16T13:01:28;19.00;99.90
14924;DHT22;7554;43.600;1.480;2024-02-16T13:03:55;19.30;99.90
14924;DHT22;7554;43.600;1.480;2024-02-16T13:06:23;19.80;99.90
14924;DHT22;7554;43.600;1.480;2024-02-16T13:08:50;19.50;99.90
14924;DHT22;7554;43.600;1.480;2024-02-16T13:11:19;19.50;99.90
14924;DHT22;7554;43.600;1.480;2024-02-16T13:13:47;19.80;99.90
14924;DHT22;7554;43.600;1.480;2024-02-16T13:16:15;19.80;99.90
14924;DHT22;7554;43.600;1.480;2024-02-16T13:18:42;19.70;99.90
14924;DHT22;7554;43.600;1.480;2024-02-16T13:21:10;19.70;99.90
14924;DHT22;7554;43.600;1.480;2024-02-16T13:23:37;19.60;99.90
14924;DHT22;7554;43.600;1.480;2024-02-16T13:26:05;19.40;99.90
14924;DHT22;7554;43.600;1.480;2024-02-16T13:28:32;19.40;99.90
14924;DHT22;7554;43.600;1.480;2024-02-16T13:31:01;19.70;99.90
14924;DHT22;7554;43.600;1.480;2024-02-16T13:33:29;19.70;99.90
14924;DHT22;7554;43.600;1.480;2024-02-16T13:35:56;19.20;99.90
14924;DHT22;7554;43.600;1.480;2024-02-16T13:38:24;19.50;99.90
14924;DHT22;7554;43.600;1.480;2024-02-16T13:40:51;19.70;99.90
14924;DHT22;7554;43.600;1.480;2024-02-16T13:43:19;19.90;99.90
14924;DHT22;7554;43.600;1.480;2024-02-16T13:45:49;19.90;99.90
14924;DHT22;7554;43.600;1.480;2024-02-16T13:48:18;19.60;99.90
14924;DHT22;7554;43.600;1.480;2024-02-16T13:50:46;19.60;99.90
14924;DHT22;7554;43.600;1.480;2024-02-16T13:53:14;19.60;99.90
14924;DHT22;7554;43.600;1.480;2024-02-16T13:55:42;19.80;99.90
14924;DHT22;7554;43.600;1.480;2024-02-16T13:58:09;19.70;99.90
14924;DHT22;7554;43.600;1.480;2024-02-16T14:00:37;19.60;99.90
14924;DHT22;7554;43.600;1.480;2024-02-16T14:03:05;19.10;99.90
14924;DHT22;7554;43.600;1.480;2024-02-16T14:05:36;19.60;99.90
14924;DHT22;7554;43.600;1.480;2024-02-16T14:08:04;19.60;99.90
14924;DHT22;7554;43.600;1.480;2024-02-16T14:10:33;19.70;99.90
14924;DHT22;7554;43.600;1.480;2024-02-16T14:13:00;19.30;99.90
14924;DHT22;7554;43.600;1.480;2024-02-16T14:15:28;19.40;99.90
14924;DHT22;7554;43.600;1.480;2024-02-16T14:17:55;19.30;99.90
14924;DHT22;7554;43.600;1.480;2024-02-16T14:20:23;19.00;99.90
14924;DHT22;7554;43.600;1.480;2024-02-16T14:22:51;19.20;99.90
14924;DHT22;7554;43.600;1.480;2024-02-16T14:25:19;18.70;99.90
14924;DHT22;7554;43.600;1.480;2024-02-16T14:27:46;18.80;99.90
14924;DHT22;7554;43.600;1.480;2024-02-16T14:30:14;18.50;99.90
14924;DHT22;7554;43.600;1.480;2024-02-16T14:32:41;18.60;99.90
14924;DHT22;7554;43.600;1.480;2024-02-16T14:35:09;18.90;99.90
14924;DHT22;7554;43.600;1.480;2024-02-16T14:37:36;18.90;99.90
14924;DHT22;7554;43.600;1.480;2024-02-16T14:40:07;18.80;99.90
14924;DHT22;7554;43.600;1.480;2024-02-16T14:42:36;18.80;99.90
14924;DHT22;7554;43.600;1.480;2024-02-16T14:45:06;19.50;99.90
14924;DHT22;7554;43.600;1.480;2024-02-16T14:47:35;18.50;99.90
14924;DHT22;7554;43.600;1.480;2024-02-16T14:50:03;19.00;99.90
14924;DHT22;7554;43.600;1.480;2024-02-16T14:52:33;18.70;99.90
14924;DHT22;7554;43.600;1.480;2024-02-16T14:55:01;18.50;99.90
14924;DHT22;7554;43.600;1.480;2024-02-16T14:57:30;18.90;99.90
14924;DHT22;7554;43.600;1.480;2024-02-16T14:59:57;18.60;99.90
14924;DHT22;7554;43.600;1.480;2024-02-16T15:02:24;18.70;99.90
14924;DHT22;7554;43.600;1.480;2024-02-16T15:04:51;18.50;99.90
14924;DHT22;7554;43.600;1.480;2024-02-16T15:07:19;18.80;99.90
14924;DHT22;7554;43.600;1.480;2024-02-16T15:09:47;19.00;99.90
14924;DHT22;7554;43.600;1.480;2024-02-16T15:12:14;19.20;99.90
14924;DHT22;7554;43.600;1.480;2024-02-16T15:14:46;19.10;99.90
14924;DHT22;7554;43.600;1.480;2024-02-16T15:17:14;19.20;99.90
14924;DHT22;7554;43.600;1.480;2024-02-16T15:19:43;18.90;99.90
14924;DHT22;7554;43.600;1.480;2024-02-16T15:22:10;19.10;99.90
14924;DHT22;7554;43.600;1.480;2024-02-16T15:24:38;18.90;99.90
14924;DHT22;7554;43.600;1.480;2024-02-16T15:27:05;19.60;99.90
14924;DHT22;7554;43.600;1.480;2024-02-16T15:29:33;18.40;99.90
14924;DHT22;7554;43.600;1.480;2024-02-16T15:32:01;18.40;99.90
14924;DHT22;7554;43.600;1.480;2024-02-16T15:34:29;18.50;99.90
14924;DHT22;7554;43.600;1.480;2024-02-16T15:36:56;18.40;99.90
14924;DHT22;7554;43.600;1.480;2024-02-16T15:39:24;18.90;99.90
14924;DHT22;7554;43.600;1.480;2024-02-16T15:41:52;19.20;99.90
14924;DHT22;7554;43.600;1.480;2024-02-16T15:44:20;18.60;99.90
14924;DHT22;7554;43.600;1.480;2024-02-16T15:46:48;19.40;99.90
14924;DHT22;7554;43.600;1.480;2024-02-16T15:49:17;19.20;99.90
14924;DHT22;7554;43.600;1.480;2024-02-16T15:51:44;18.60;99.90
14924;DHT22;7554;43.600;1.480;2024-02-16T15:54:12;19.30;99.90
14924;DHT22;7554;43.600;1.480;2024-02-16T15:56:39;18.60;99.90